Time;durP1;ratioP1;P1;durP2;ratioP2;P2;SDS_P1;SDS_P2;PMS_P1;PMS_P2;Temp;Humidity;BMP_temperature;BMP_pressure;BME280_temperature;BME280_humidity;BME280_pressure;Samples;Min_cycle;Max_cycle;Signal;HPM_P1;HPM_P2
2023/03/12 00:01:10;;;;;;;13.87;9.37;;;0.70;1.00;;;;;;5020131;28;20870;-49
2023/03/12 00:03:36;;;;;;;18.93;9.10;;;0.70;1.00;;;;;;5016995;28;20226;-50
2023/03/12 00:06:03;;;;;;;20.13;9.07;;;0.70;1.00;;;;;;5020820;28;20475;-49
2023/03/12 00:08:28;;;;;;;14.73;8.33;;;0.70;1.00;;;;;;5024681;28;20199;-50
2023/03/12 00:10:54;;;;;;;21.43;8.73;;;0.80;1.00;;;;;;5021789;28;20466;-50
2023/03/12 00:13:19;;;;;;;14.10;9.07;;;0.80;1.00;;;;;;5022932;28;20195;-50
2023/03/12 00:15:45;;;;;;;13.77;8.77;;;0.90;1.00;;;;;;5024579;28;20192;-49
2023/03/12 00:18:10;;;;;;;19.80;9.20;;;0.90;1.00;;;;;;5018303;28;20189;-50
2023/03/12 00:20:36;;;;;;;14.87;9.00;;;0.90;1.00;;;;;;5023316;28;20241;-49
2023/03/12 00:23:01;;;;;;;22.10;8.57;;;0.90;1.00;;;;;;5016703;28;20202;-49
2023/03/12 00:25:27;;;;;;;20.37;9.03;;;0.90;1.00;;;;;;5021047;28;20713;-49
2023/03/12 00:27:53;;;;;;;13.70;9.20;;;0.90;1.00;;;;;;5016010;28;20202;-50
2023/03/12 00:30:18;;;;;;;16.13;9.13;;;0.90;1.00;;;;;;5016980;28;20194;-50
2023/03/12 00:32:44;;;;;;;13.73;9.00;;;1.00;1.00;;;;;;5017306;28;20698;-49
2023/03/12 00:35:09;;;;;;;14.73;9.00;;;0.90;1.00;;;;;;5016440;28;20193;-50
2023/03/12 00:37:37;;;;;;;20.90;10.17;;;0.90;1.00;;;;;;5016987;28;20287;-49
2023/03/12 00:40:04;;;;;;;19.70;9.47;;;0.90;1.00;;;;;;5016404;28;20185;-51
2023/03/12 00:42:30;;;;;;;16.87;9.10;;;0.90;1.00;;;;;;5020293;28;20438;-50
2023/03/12 00:44:56;;;;;;;15.90;9.03;;;0.90;1.00;;;;;;5019316;28;20537;-49
2023/03/12 00:47:21;;;;;;;14.80;8.60;;;0.80;1.00;;;;;;5020637;28;20652;-49
2023/03/12 00:49:47;;;;;;;16.20;9.03;;;0.70;1.00;;;;;;5019767;28;20187;-50
2023/03/12 00:52:13;;;;;;;15.67;9.27;;;0.70;1.00;;;;;;5025218;28;20181;-49
2023/03/12 00:54:38;;;;;;;17.57;9.50;;;0.70;1.00;;;;;;5013348;28;20184;-49
2023/03/12 00:57:05;;;;;;;14.20;9.13;;;0.60;1.00;;;;;;5026865;28;20184;-49
2023/03/12 00:59:31;;;;;;;19.40;11.00;;;0.60;1.00;;;;;;5019394;28;20626;-49
2023/03/12 01:01:56;;;;;;;18.37;9.80;;;0.60;1.00;;;;;;5019730;28;20543;-49
2023/03/12 01:04:22;;;;;;;21.10;10.30;;;0.60;6.40;;;;;;5019566;28;20246;-49
2023/03/12 01:06:48;;;;;;;21.43;11.23;;;0.70;14.40;;;;;;5021538;28;20519;-49
2023/03/12 01:09:13;;;;;;;21.30;11.87;;;0.70;21.10;;;;;;5019606;28;20501;-49
2023/03/12 01:11:39;;;;;;;18.83;11.00;;;0.70;28.60;;;;;;5015478;28;20212;-49
2023/03/12 01:14:06;;;;;;;16.90;10.90;;;0.70;36.60;;;;;;5016282;28;20250;-49
2023/03/12 01:16:32;;;;;;;14.90;10.07;;;0.70;39.00;;;;;;5015833;28;20439;-49
2023/03/12 01:18:59;;;;;;;15.50;10.73;;;0.70;39.70;;;;;;5014997;28;20537;-50
2023/03/12 01:21:25;;;;;;;19.17;11.20;;;0.60;39.70;;;;;;5015777;28;20188;-49
2023/03/12 01:23:53;;;;;;;22.40;11.80;;;0.70;40.20;;;;;;5017236;28;20489;-49
2023/03/12 01:26:18;;;;;;;17.83;11.13;;;0.60;43.60;;;;;;5019779;28;20191;-49
2023/03/12 01:28:44;;;;;;;18.90;12.00;;;0.60;50.30;;;;;;5015937;28;20442;-49
2023/03/12 01:31:13;;;;;;;19.97;11.73;;;0.60;51.80;;;;;;5019011;28;20270;-50
2023/03/12 01:33:39;;;;;;;21.30;11.60;;;0.60;52.60;;;;;;5026284;28;20187;-49
2023/03/12 01:36:05;;;;;;;22.30;12.10;;;0.50;53.00;;;;;;5016333;28;20850;-49
2023/03/12 01:38:30;;;;;;;20.10;12.33;;;0.50;51.10;;;;;;5015260;28;20615;-49
2023/03/12 01:40:56;;;;;;;23.70;12.13;;;0.50;52.40;;;;;;5019304;28;20430;-49
2023/03/12 01:43:25;;;;;;;20.70;12.20;;;0.50;60.80;;;;;;5014935;28;20191;-50
2023/03/12 01:46:15;;;;;;;22.13;13.07;;;0.50;71.90;;;;;;5018951;28;20756;-49
2023/03/12 01:48:47;;;;;;;23.83;11.87;;;0.50;79.50;;;;;;5022518;28;20452;-49
2023/03/12 01:51:14;;;;;;;26.10;13.43;;;0.50;77.20;;;;;;5015512;28;20534;-48
2023/03/12 01:53:43;;;;;;;22.57;12.80;;;0.40;74.40;;;;;;5014248;28;20464;-50
2023/03/12 01:56:10;;;;;;;26.30;13.30;;;0.40;76.70;;;;;;5022507;28;20449;-49
2023/03/12 01:58:39;;;;;;;29.13;13.10;;;0.40;90.50;;;;;;5019628;28;20438;-49
2023/03/12 02:01:05;;;;;;;19.00;12.10;;;0.40;95.90;;;;;;5015373;28;20447;-48
2023/03/12 02:03:32;;;;;;;20.13;12.00;;;0.40;98.90;;;;;;5015277;28;20564;-49
2023/03/12 02:06:05;;;;;;;22.27;12.00;;;0.40;98.70;;;;;;5018545;28;20485;-49
2023/03/12 02:08:34;;;;;;;23.67;11.70;;;0.30;95.20;;;;;;5018516;28;20800;-49
2023/03/12 02:11:00;;;;;;;18.40;12.23;;;0.30;96.50;;;;;;5018924;28;20442;-49
2023/03/12 02:13:26;;;;;;;22.23;11.50;;;0.30;99.90;;;;;;5018648;28;20442;-49
2023/03/12 02:15:52;;;;;;;22.03;13.00;;;0.40;99.90;;;;;;5019012;28;20190;-49
2023/03/12 02:18:20;;;;;;;22.50;13.57;;;0.40;99.90;;;;;;5018563;28;20562;-49
2023/03/12 02:21:17;;;;;;;20.60;12.47;;;0.50;99.90;;;;;;5019143;28;20442;-51
2023/03/12 02:24:06;;;;;;;24.63;13.13;;;0.50;99.90;;;;;;5013207;28;20454;-49
2023/03/12 02:26:33;;;;;;;21.33;12.20;;;0.60;99.90;;;;;;5014345;28;20446;-49
2023/03/12 02:29:00;;;;;;;34.77;14.63;;;0.60;99.90;;;;;;5018582;28;20477;-49
2023/03/12 02:31:31;;;;;;;25.20;13.70;;;0.60;99.90;;;;;;5015718;28;20597;-49
2023/03/12 02:33:59;;;;;;;27.83;14.60;;;0.70;99.90;;;;;;5017520;28;20473;-49
2023/03/12 02:36:25;;;;;;;25.07;14.50;;;0.70;99.90;;;;;;5015005;28;20532;-49
2023/03/12 02:38:53;;;;;;;27.03;15.20;;;0.70;99.90;;;;;;5014507;28;20499;-49
2023/03/12 02:41:42;;;;;;;25.30;15.47;;;0.70;99.90;;;;;;5014162;28;20845;-49
2023/03/12 02:44:19;;;;;;;22.27;13.20;;;0.80;99.90;;;;;;5024756;28;20560;-49
2023/03/12 02:46:48;;;;;;;21.70;12.60;;;0.90;99.90;;;;;;5018408;28;20538;-49
2023/03/12 02:49:16;;;;;;;27.27;12.47;;;0.90;99.90;;;;;;5018722;28;20521;-49
2023/03/12 02:51:43;;;;;;;19.07;11.77;;;0.80;99.90;;;;;;5022679;28;20431;-49
2023/03/12 02:54:10;;;;;;;26.23;11.40;;;0.80;99.90;;;;;;5020580;28;20943;-49
2023/03/12 02:56:36;;;;;;;20.43;11.80;;;0.70;92.30;;;;;;5019959;28;20538;-49
2023/03/12 02:59:03;;;;;;;24.43;10.90;;;0.60;70.10;;;;;;5018270;28;20443;-49
2023/03/12 03:01:28;;;;;;;17.37;10.80;;;0.50;53.90;;;;;;5014425;28;20434;-49
2023/03/12 03:03:54;;;;;;;20.10;10.90;;;0.50;53.50;;;;;;5014380;28;20526;-49
2023/03/12 03:06:20;;;;;;;22.30;10.57;;;0.50;55.00;;;;;;5019998;28;20290;-49
2023/03/12 03:08:45;;;;;;;19.60;10.90;;;0.50;52.90;;;;;;5022092;28;20275;-50
2023/03/12 03:11:11;;;;;;;19.03;10.87;;;0.40;40.30;;;;;;5018769;28;20180;-49
2023/03/12 03:13:37;;;;;;;17.50;11.23;;;0.40;32.50;;;;;;5018623;28;20647;-49
2023/03/12 03:16:04;;;;;;;16.03;9.93;;;0.30;33.60;;;;;;5017753;28;20530;-49
2023/03/12 03:18:31;;;;;;;17.87;9.97;;;0.30;33.20;;;;;;5018598;28;20600;-49
2023/03/12 03:21:06;;;;;;;15.57;9.87;;;0.20;31.90;;;;;;5019568;28;20438;-49
2023/03/12 03:23:33;;;;;;;23.00;11.23;;;0.30;44.50;;;;;;5021832;28;20449;-49
2023/03/12 03:25:58;;;;;;;19.10;11.60;;;0.20;45.60;;;;;;5017702;28;21002;-49
2023/03/12 03:28:26;;;;;;;17.60;11.03;;;0.20;48.50;;;;;;5018570;28;20473;-49
2023/03/12 03:31:00;;;;;;;21.10;11.37;;;0.20;54.30;;;;;;5019158;28;20660;-49
2023/03/12 03:33:25;;;;;;;17.23;11.03;;;0.20;58.90;;;;;;5018851;28;20560;-49
2023/03/12 03:35:51;;;;;;;16.50;9.67;;;0.10;63.80;;;;;;5021669;28;20945;-49
2023/03/12 03:38:16;;;;;;;19.53;10.90;;;0.10;68.50;;;;;;5018214;28;20654;-50
2023/03/12 03:40:42;;;;;;;16.07;10.40;;;0.20;80.70;;;;;;5018079;28;20189;-49
2023/03/12 03:43:08;;;;;;;18.67;10.10;;;0.20;85.80;;;;;;5016997;28;20184;-50
2023/03/12 03:45:34;;;;;;;17.20;10.70;;;0.20;76.40;;;;;;5017424;28;20350;-50
2023/03/12 03:47:59;;;;;;;22.90;10.40;;;0.10;72.10;;;;;;5018245;28;20654;-49
2023/03/12 03:50:25;;;;;;;26.13;12.00;;;0.10;67.60;;;;;;5017747;28;20220;-49
2023/03/12 03:52:51;;;;;;;18.50;11.10;;;0.20;74.80;;;;;;5016662;28;20188;-49
2023/03/12 03:55:16;;;;;;;18.00;11.70;;;0.20;83.80;;;;;;5018308;28;20184;-50
2023/03/12 03:57:42;;;;;;;19.53;11.10;;;0.20;85.60;;;;;;5017603;28;20563;-49
2023/03/12 04:00:11;;;;;;;18.77;10.93;;;0.30;86.70;;;;;;5021094;28;20651;-49
2023/03/12 04:02:38;;;;;;;20.90;11.40;;;0.20;76.60;;;;;;5016980;28;20192;-49
2023/03/12 04:05:04;;;;;;;17.20;11.00;;;0.20;75.30;;;;;;5017086;28;20549;-49
2023/03/12 04:07:30;;;;;;;19.43;10.30;;;0.20;68.10;;;;;;5021812;28;20911;-50
2023/03/12 04:09:57;;;;;;;21.17;11.30;;;0.20;56.60;;;;;;5017724;28;20796;-49
2023/03/12 04:12:24;;;;;;;15.90;11.00;;;0.10;47.90;;;;;;5016693;28;20442;-49
2023/03/12 04:14:51;;;;;;;20.30;10.80;;;0.00;44.70;;;;;;5016902;28;20517;-50
2023/03/12 04:17:17;;;;;;;20.30;10.77;;;0.00;39.30;;;;;;5020565;28;20439;-49
2023/03/12 04:19:43;;;;;;;19.70;10.40;;;-0.10;36.00;;;;;;5017695;28;20446;-49
2023/03/12 04:22:09;;;;;;;23.53;10.50;;;-0.10;35.50;;;;;;5016520;28;20435;-50
2023/03/12 04:24:34;;;;;;;23.03;10.60;;;-0.20;41.50;;;;;;5016953;28;20255;-49
2023/03/12 04:27:00;;;;;;;16.13;9.87;;;-0.20;45.30;;;;;;5019827;28;20270;-49
2023/03/12 04:29:26;;;;;;;17.63;9.20;;;-0.20;51.20;;;;;;5016713;28;20322;-49
2023/03/12 04:31:51;;;;;;;19.37;9.10;;;-0.20;56.80;;;;;;5017443;28;20220;-49
2023/03/12 04:34:17;;;;;;;18.20;10.10;;;-0.20;61.70;;;;;;5016512;28;20837;-50
2023/03/12 04:36:44;;;;;;;22.10;10.80;;;-0.10;64.00;;;;;;5017237;28;20202;-49
2023/03/12 04:39:09;;;;;;;24.90;10.83;;;-0.10;66.80;;;;;;5021369;28;20439;-49
2023/03/12 04:41:35;;;;;;;19.77;9.90;;;-0.10;68.90;;;;;;5020514;28;20501;-48
2023/03/12 04:44:01;;;;;;;18.13;10.47;;;-0.10;58.80;;;;;;5015206;28;20230;-49
2023/03/12 04:46:28;;;;;;;21.03;10.97;;;-0.10;52.30;;;;;;5019929;28;20439;-49
2023/03/12 04:48:53;;;;;;;24.07;11.43;;;-0.10;44.20;;;;;;5020143;28;20944;-49
2023/03/12 04:51:19;;;;;;;14.90;9.83;;;-0.20;37.00;;;;;;5020869;28;20534;-50
2023/03/12 04:53:44;;;;;;;17.60;10.73;;;-0.20;30.30;;;;;;5016464;28;20242;-49
2023/03/12 04:56:10;;;;;;;26.07;12.93;;;-0.30;20.70;;;;;;5016243;28;20375;-48
2023/03/12 04:58:36;;;;;;;18.73;12.10;;;-0.30;18.90;;;;;;5016269;28;20199;-49
2023/03/12 05:01:02;;;;;;;22.17;12.50;;;-0.20;24.00;;;;;;5018042;28;20191;-49
2023/03/12 05:03:28;;;;;;;29.73;12.50;;;-0.20;26.70;;;;;;5017465;28;20873;-49
2023/03/12 05:05:53;;;;;;;17.80;12.00;;;-0.30;23.10;;;;;;5017113;28;20498;-49
2023/03/12 05:08:19;;;;;;;23.77;13.50;;;-0.30;25.30;;;;;;5016411;28;20184;-49
2023/03/12 05:10:45;;;;;;;29.20;12.80;;;-0.30;24.60;;;;;;5015649;28;20586;-49
2023/03/12 05:13:19;;;;;;;19.93;12.40;;;-0.30;25.80;;;;;;5015523;28;20195;-49
2023/03/12 05:15:46;;;;;;;29.23;12.63;;;-0.30;32.80;;;;;;5016458;28;20191;-51
2023/03/12 05:18:12;;;;;;;20.07;12.67;;;-0.30;38.40;;;;;;5016516;28;20505;-49
2023/03/12 05:20:37;;;;;;;22.43;14.13;;;-0.30;40.10;;;;;;5016225;28;20478;-49
2023/03/12 05:23:03;;;;;;;24.57;14.50;;;-0.20;45.60;;;;;;5016417;28;20667;-49
2023/03/12 05:25:28;;;;;;;22.47;14.50;;;-0.30;45.10;;;;;;5018945;28;20220;-49
2023/03/12 05:27:55;;;;;;;21.90;14.03;;;-0.20;44.90;;;;;;5019580;28;20195;-49
2023/03/12 05:30:20;;;;;;;20.50;13.97;;;-0.20;49.30;;;;;;5015493;28;20264;-49
2023/03/12 05:32:46;;;;;;;21.20;14.33;;;-0.10;46.20;;;;;;5015834;28;20500;-51
2023/03/12 05:35:12;;;;;;;24.00;13.73;;;-0.10;40.60;;;;;;5019382;28;20274;-49
2023/03/12 05:37:38;;;;;;;25.93;13.00;;;-0.10;31.20;;;;;;5015799;28;20196;-49
2023/03/12 05:40:04;;;;;;;20.97;13.27;;;-0.10;27.20;;;;;;5015540;28;20439;-50
2023/03/12 05:42:29;;;;;;;29.33;13.70;;;-0.20;20.10;;;;;;5015734;28;20187;-49
2023/03/12 05:44:55;;;;;;;23.10;12.10;;;-0.20;17.90;;;;;;5015277;28;20495;-50
2023/03/12 05:47:21;;;;;;;24.70;13.63;;;-0.20;19.80;;;;;;5015098;28;20204;-50
2023/03/12 05:49:47;;;;;;;30.30;13.03;;;-0.10;24.60;;;;;;5016110;28;20195;-50
2023/03/12 05:52:12;;;;;;;24.10;14.13;;;0.00;30.00;;;;;;5015753;28;20437;-49
2023/03/12 05:54:38;;;;;;;20.10;12.67;;;0.00;32.30;;;;;;5014441;28;20650;-49
2023/03/12 05:57:04;;;;;;;20.10;12.30;;;0.00;23.50;;;;;;5019588;28;20192;-49
2023/03/12 05:59:29;;;;;;;23.70;13.43;;;0.00;19.90;;;;;;5015241;28;20224;-49
2023/03/12 06:01:55;;;;;;;26.60;12.80;;;0.10;21.10;;;;;;5015251;28;20561;-50
2023/03/12 06:04:21;;;;;;;20.70;13.20;;;0.00;11.90;;;;;;5015130;28;20327;-50
2023/03/12 06:06:47;;;;;;;21.87;13.40;;;0.00;7.20;;;;;;5019513;28;20986;-50
2023/03/12 06:09:12;;;;;;;22.97;13.40;;;0.10;8.70;;;;;;5014663;28;20179;-49
2023/03/12 06:11:38;;;;;;;24.87;14.50;;;0.20;10.70;;;;;;5015122;28;20187;-50
2023/03/12 06:14:03;;;;;;;24.63;13.00;;;0.20;4.50;;;;;;5015225;28;20271;-50
2023/03/12 06:16:29;;;;;;;21.03;13.23;;;0.20;1.00;;;;;;5019178;28;20670;-49
2023/03/12 06:18:57;;;;;;;22.27;14.03;;;0.20;1.00;;;;;;5014121;28;20195;-50
2023/03/12 06:21:26;;;;;;;29.83;14.10;;;0.30;1.00;;;;;;5015349;28;20211;-49
2023/03/12 06:23:52;;;;;;;24.40;13.53;;;0.30;1.00;;;;;;5015740;28;20451;-49
2023/03/12 06:26:19;;;;;;;24.00;13.67;;;0.40;1.00;;;;;;5014213;28;21372;-50
2023/03/12 06:28:45;;;;;;;27.17;14.33;;;0.40;4.90;;;;;;5019253;28;20626;-51
2023/03/12 06:31:11;;;;;;;27.07;13.37;;;0.40;5.00;;;;;;5016060;28;20452;-49
2023/03/12 06:33:37;;;;;;;24.27;13.10;;;0.50;8.10;;;;;;5014851;28;20522;-50
2023/03/12 06:36:05;;;;;;;21.67;13.80;;;0.60;10.60;;;;;;5014091;28;20516;-49
2023/03/12 06:38:31;;;;;;;27.70;13.00;;;0.60;10.00;;;;;;5018215;28;20197;-50
2023/03/12 06:40:58;;;;;;;24.00;13.63;;;0.70;11.60;;;;;;5014801;28;20439;-50
2023/03/12 06:43:26;;;;;;;24.40;14.17;;;0.70;11.20;;;;;;5013876;28;20446;-50
2023/03/12 06:45:55;;;;;;;27.97;13.20;;;0.70;11.90;;;;;;5014011;28;20547;-50
2023/03/12 06:48:21;;;;;;;22.20;13.30;;;0.80;11.30;;;;;;5014063;28;20447;-50
2023/03/12 06:50:47;;;;;;;25.00;13.53;;;0.90;8.00;;;;;;5015792;28;20787;-51
2023/03/12 06:53:12;;;;;;;21.93;14.23;;;1.00;7.30;;;;;;5018119;28;20439;-50
2023/03/12 06:55:38;;;;;;;25.17;14.00;;;1.10;1.00;;;;;;5013565;28;20194;-50
2023/03/12 06:58:04;;;;;;;21.70;13.70;;;1.20;1.00;;;;;;5014933;28;20195;-50
2023/03/12 07:00:31;;;;;;;23.80;14.47;;;1.30;1.00;;;;;;5014271;28;20575;-50
2023/03/12 07:02:56;;;;;;;26.10;15.00;;;1.40;1.00;;;;;;5014865;28;20238;-50
2023/03/12 07:05:23;;;;;;;24.23;15.77;;;1.60;1.00;;;;;;5014194;28;20484;-50
2023/03/12 07:07:49;;;;;;;28.23;14.17;;;1.80;1.00;;;;;;5014879;28;20196;-50
2023/03/12 07:10:14;;;;;;;20.27;14.13;;;1.90;1.00;;;;;;5014457;28;20435;-50
2023/03/12 07:12:40;;;;;;;23.87;13.87;;;1.90;99.90;;;;;;5013948;28;20281;-50
2023/03/12 07:15:06;;;;;;;15.67;11.97;;;2.00;99.90;;;;;;5014655;28;20443;-50
2023/03/12 07:17:32;;;;;;;20.73;12.30;;;2.00;99.90;;;;;;5016450;28;20188;-50
2023/03/12 07:19:57;;;;;;;23.53;12.70;;;2.00;99.90;;;;;;5015387;28;20441;-51
2023/03/12 07:22:23;;;;;;;22.20;13.27;;;2.00;21.50;;;;;;5014454;28;20192;-50
2023/03/12 07:24:50;;;;;;;20.70;13.10;;;1.90;1.00;;;;;;5017005;28;20219;-50
2023/03/12 07:27:16;;;;;;;18.60;12.17;;;2.00;1.00;;;;;;5013666;28;20638;-53
2023/03/12 07:29:42;;;;;;;29.53;13.67;;;2.10;1.00;;;;;;5018727;28;20864;-51
2023/03/12 07:32:08;;;;;;;23.30;14.50;;;2.10;1.00;;;;;;5014483;28;20441;-51
2023/03/12 07:34:33;;;;;;;23.40;13.53;;;2.10;1.00;;;;;;5014011;28;21273;-51
2023/03/12 07:36:59;;;;;;;19.90;13.50;;;2.00;99.90;;;;;;5013714;28;20541;-51
2023/03/12 07:39:25;;;;;;;22.30;13.33;;;2.10;99.90;;;;;;5014763;28;20198;-51
2023/03/12 07:41:50;;;;;;;24.87;13.30;;;2.20;99.90;;;;;;5014347;28;20192;-51
2023/03/12 07:44:16;;;;;;;18.10;12.60;;;2.40;99.90;;;;;;5013921;28;20821;-52
2023/03/12 07:46:41;;;;;;;21.50;13.80;;;2.40;99.90;;;;;;5014609;28;20188;-51
2023/03/12 07:49:07;;;;;;;20.17;13.13;;;2.50;99.90;;;;;;5017569;28;20278;-51
2023/03/12 07:51:33;;;;;;;16.60;12.80;;;2.60;1.00;;;;;;5013512;28;20186;-52
2023/03/12 07:53:58;;;;;;;13.23;11.83;;;2.80;99.90;;;;;;5020808;28;20188;-51
2023/03/12 07:56:24;;;;;;;21.00;12.10;;;3.00;99.90;;;;;;5018343;28;20193;-51
2023/03/12 07:58:49;;;;;;;15.73;11.90;;;3.20;1.00;;;;;;5018259;28;20184;-52
2023/03/12 08:01:15;;;;;;;19.57;11.37;;;3.50;99.90;;;;;;5017093;28;20194;-54
2023/03/12 08:03:41;;;;;;;15.80;10.70;;;3.60;1.00;;;;;;5018186;28;20616;-51
2023/03/12 08:06:07;;;;;;;12.70;9.63;;;4.00;99.90;;;;;;5017348;28;20229;-52
2023/03/12 08:08:33;;;;;;;13.50;10.40;;;4.30;1.00;;;;;;5017455;28;20446;-53
2023/03/12 08:11:00;;;;;;;15.30;10.37;;;4.40;1.00;;;;;;5017484;28;20219;-51
2023/03/12 08:13:25;;;;;;;10.30;8.47;;;4.60;1.00;;;;;;5017276;28;20431;-51
2023/03/12 08:15:52;;;;;;;13.33;9.50;;;4.90;1.00;;;;;;5017272;28;20564;-51
2023/03/12 08:18:18;;;;;;;14.50;8.57;;;4.90;1.00;;;;;;5016874;28;20221;-51
2023/03/12 08:20:44;;;;;;;17.03;9.10;;;4.80;1.00;;;;;;5018102;28;20492;-51
2023/03/12 08:23:10;;;;;;;14.10;9.80;;;4.80;1.00;;;;;;5016750;28;20442;-51
2023/03/12 08:25:36;;;;;;;18.77;8.47;;;4.60;1.00;;;;;;5017398;28;20224;-51
2023/03/12 08:28:04;;;;;;;12.83;7.70;;;4.50;1.00;;;;;;5016412;28;20183;-51
2023/03/12 08:30:30;;;;;;;10.30;7.87;;;4.40;99.90;;;;;;5016528;28;20783;-52
2023/03/12 08:32:57;;;;;;;16.47;7.97;;;4.30;99.90;;;;;;5016238;28;20473;-52
2023/03/12 08:35:23;;;;;;;12.27;8.20;;;4.10;1.00;;;;;;5017876;28;20524;-51
2023/03/12 08:37:48;;;;;;;14.33;8.10;;;4.00;99.90;;;;;;5020134;28;20442;-52
2023/03/12 08:40:14;;;;;;;10.87;7.30;;;4.10;99.90;;;;;;5016637;28;20929;-52
2023/03/12 08:42:41;;;;;;;10.23;7.27;;;4.10;99.90;;;;;;5016595;28;20203;-52
2023/03/12 08:45:08;;;;;;;12.30;8.30;;;4.20;99.90;;;;;;5016377;28;20325;-51
2023/03/12 08:47:34;;;;;;;21.77;11.60;;;4.40;99.90;;;;;;5019106;28;20567;-52
2023/03/12 08:50:00;;;;;;;10.13;7.13;;;4.50;54.10;;;;;;5016348;28;20466;-52
2023/03/12 08:52:25;;;;;;;38.50;25.57;;;4.40;17.30;;;;;;5023175;28;20277;-51
2023/03/12 08:54:51;;;;;;;14.70;7.93;;;4.40;7.00;;;;;;5024682;28;20367;-52
2023/03/12 08:57:16;;;;;;;10.13;6.97;;;4.30;1.00;;;;;;5033659;28;20187;-52
2023/03/12 08:59:42;;;;;;;11.43;7.37;;;4.40;1.00;;;;;;5033640;28;20182;-52
2023/03/12 09:02:11;;;;;;;10.70;7.17;;;4.50;1.00;;;;;;5033077;28;20192;-51
2023/03/12 09:04:36;;;;;;;9.07;6.70;;;4.60;1.00;;;;;;5033428;28;20214;-52
2023/03/12 09:07:02;;;;;;;9.53;6.87;;;4.60;1.00;;;;;;5030795;28;20452;-51
2023/03/12 09:09:28;;;;;;;9.13;6.00;;;4.50;1.00;;;;;;5027122;28;20202;-51
2023/03/12 09:11:54;;;;;;;12.10;6.80;;;4.40;1.00;;;;;;5032889;28;20205;-51
2023/03/12 09:14:19;;;;;;;9.47;6.83;;;4.30;1.00;;;;;;5032611;28;20219;-51
2023/03/12 09:16:45;;;;;;;9.83;6.90;;;4.20;1.00;;;;;;5033595;28;20188;-50
2023/03/12 09:19:10;;;;;;;8.90;7.10;;;4.20;1.00;;;;;;5032975;28;20192;-50
2023/03/12 09:21:36;;;;;;;9.63;6.73;;;4.20;1.00;;;;;;5033220;28;20672;-51
2023/03/12 09:24:02;;;;;;;13.60;8.07;;;4.20;1.00;;;;;;5032900;28;20184;-51
2023/03/12 09:26:27;;;;;;;10.17;6.53;;;4.40;1.00;;;;;;5029710;28;20222;-51
2023/03/12 09:28:53;;;;;;;18.77;7.53;;;4.50;1.00;;;;;;5028492;28;20194;-50
2023/03/12 09:31:19;;;;;;;16.43;7.23;;;4.60;1.00;;;;;;5033029;28;20548;-50
2023/03/12 09:33:44;;;;;;;9.53;6.40;;;4.50;1.00;;;;;;5032877;28;20194;-50
2023/03/12 09:36:10;;;;;;;10.90;6.93;;;4.50;1.00;;;;;;5032293;28;20190;-52
2023/03/12 09:38:36;;;;;;;10.47;6.63;;;4.50;1.00;;;;;;5031517;28;20662;-52
2023/03/12 09:41:12;;;;;;;12.80;7.10;;;4.50;1.00;;;;;;5032977;28;20191;-50
2023/03/12 09:43:46;;;;;;;14.07;6.67;;;4.50;1.00;;;;;;5032210;28;20408;-51
2023/03/12 09:46:17;;;;;;;8.70;6.43;;;4.70;1.00;;;;;;5032895;28;20556;-51
2023/03/12 09:48:44;;;;;;;8.87;6.57;;;4.90;1.00;;;;;;5017799;28;20427;-52
2023/03/12 09:51:35;;;;;;;12.73;5.70;;;5.00;1.00;;;;;;5013254;28;20413;-51
2023/03/12 09:54:05;;;;;;;10.13;5.33;;;5.10;1.00;;;;;;5022888;28;20809;-51
2023/03/12 09:56:32;;;;;;;10.20;5.97;;;5.20;1.00;;;;;;5019461;28;20448;-51
2023/03/12 09:58:59;;;;;;;9.97;5.60;;;5.40;1.00;;;;;;5014598;28;20964;-52
2023/03/12 10:01:28;;;;;;;8.20;5.73;;;5.50;1.00;;;;;;5015438;28;20588;-51
2023/03/12 10:03:57;;;;;;;10.20;6.10;;;5.40;1.00;;;;;;5019220;28;20450;-52
2023/03/12 10:06:28;;;;;;;7.63;5.10;;;5.50;1.00;;;;;;5018961;28;20852;-51
2023/03/12 10:09:17;;;;;;;7.87;5.43;;;5.60;1.00;;;;;;5015635;28;20449;-51
2023/03/12 10:11:46;;;;;;;10.23;5.63;;;5.80;1.00;;;;;;5021527;28;20533;-51
2023/03/12 10:14:14;;;;;;;8.73;5.03;;;6.10;1.00;;;;;;5021935;28;20449;-51
2023/03/12 10:17:07;;;;;;;10.27;5.80;;;6.40;1.00;;;;;;5014839;28;20536;-51
2023/03/12 10:19:53;;;;;;;11.00;5.10;;;6.40;1.00;;;;;;5018674;28;20437;-52
2023/03/12 10:22:22;;;;;;;10.63;5.00;;;6.30;1.00;;;;;;5015150;28;20480;-51
2023/03/12 10:25:05;;;;;;;10.23;4.83;;;6.30;1.00;;;;;;5019247;28;20572;-52
2023/03/12 10:27:35;;;;;;;7.13;4.70;;;6.60;1.00;;;;;;5018356;28;20828;-51
2023/03/12 10:30:02;;;;;;;6.30;4.70;;;6.80;1.00;;;;;;5022455;28;20455;-51
2023/03/12 10:32:48;;;;;;;7.23;5.10;;;6.70;1.00;;;;;;5015114;28;20801;-52
2023/03/12 10:35:31;;;;;;;10.70;5.40;;;6.70;1.00;;;;;;5015639;28;20517;-51
2023/03/12 10:37:59;;;;;;;11.83;4.60;;;6.50;1.00;;;;;;5018202;28;20435;-51
2023/03/12 10:40:30;;;;;;;6.37;4.73;;;6.50;1.00;;;;;;5021621;28;20441;-51
2023/03/12 10:42:56;;;;;;;7.80;4.93;;;6.30;1.00;;;;;;5018089;28;20438;-52
2023/03/12 10:45:41;;;;;;;8.97;4.67;;;6.00;1.00;;;;;;5014536;28;20482;-51
2023/03/12 10:48:10;;;;;;;11.67;5.20;;;5.90;1.00;;;;;;5014796;28;20575;-51
2023/03/12 10:50:38;;;;;;;8.90;5.40;;;6.00;1.00;;;;;;5018104;28;21005;-50
2023/03/12 10:53:23;;;;;;;7.83;5.10;;;6.10;1.00;;;;;;5014894;28;20483;-52
2023/03/12 10:56:09;;;;;;;7.60;5.47;;;6.00;1.00;;;;;;5015440;28;20520;-52
2023/03/12 10:58:40;;;;;;;8.47;5.60;;;5.90;1.00;;;;;;5014177;28;20449;-51
2023/03/12 11:01:25;;;;;;;10.80;5.40;;;5.70;1.00;;;;;;5017698;28;20450;-51
2023/03/12 11:04:06;;;;;;;10.90;5.53;;;5.70;1.00;;;;;;5017912;28;20928;-51
2023/03/12 11:06:32;;;;;;;7.50;5.50;;;5.60;1.00;;;;;;5014058;28;20480;-52
2023/03/12 11:09:15;;;;;;;10.20;6.30;;;5.60;1.00;;;;;;5014358;28;20958;-51
2023/03/12 11:11:41;;;;;;;10.80;5.23;;;5.60;1.00;;;;;;5015328;28;20191;-52
2023/03/12 11:14:28;;;;;;;10.77;5.83;;;5.70;1.00;;;;;;5013983;28;20449;-51
2023/03/12 11:16:55;;;;;;;12.93;5.20;;;5.70;1.00;;;;;;5013773;28;20248;-51
2023/03/12 11:19:32;;;;;;;6.20;5.30;;;5.60;1.00;;;;;;5018170;28;20930;-52
2023/03/12 11:22:07;;;;;;;7.70;5.50;;;5.40;1.00;;;;;;5014367;28;20940;-51
2023/03/12 11:24:33;;;;;;;9.10;5.47;;;5.30;1.00;;;;;;5013641;28;20481;-52
2023/03/12 11:27:32;;;;;;;10.17;5.63;;;5.30;1.00;;;;;;5019696;28;20441;-51
2023/03/12 11:30:01;;;;;;;10.40;5.30;;;5.20;1.00;;;;;;5018836;28;20506;-51
2023/03/12 11:32:36;;;;;;;9.40;5.40;;;5.10;1.00;;;;;;5018484;28;20440;-51
2023/03/12 11:35:03;;;;;;;8.80;5.13;;;5.00;1.00;;;;;;5023969;28;20915;-51
2023/03/12 11:37:48;;;;;;;8.83;4.53;;;5.10;1.00;;;;;;5023118;28;20818;-52
2023/03/12 11:40:23;;;;;;;8.70;4.77;;;5.20;1.00;;;;;;5021042;28;20799;-51
2023/03/12 11:43:07;;;;;;;6.47;4.20;;;5.30;1.00;;;;;;5020456;28;20441;-51
2023/03/12 11:45:45;;;;;;;8.90;5.20;;;5.30;1.00;;;;;;5017434;28;20502;-53
2023/03/12 11:48:22;;;;;;;5.60;4.87;;;5.30;1.00;;;;;;5018184;28;20525;-52
2023/03/12 11:51:00;;;;;;;10.00;4.70;;;5.30;1.00;;;;;;5021439;28;21178;-51
2023/03/12 11:54:03;;;;;;;7.00;4.90;;;5.30;1.00;;;;;;5017736;28;20452;-52
2023/03/12 11:56:34;;;;;;;9.53;5.17;;;5.20;1.00;;;;;;5017574;28;20461;-52
2023/03/12 11:59:39;;;;;;;11.93;4.30;;;5.20;1.00;;;;;;5019024;28;20957;-52
2023/03/12 12:02:10;;;;;;;22.03;10.53;;;5.10;1.00;;;;;;5029935;28;20655;-51
2023/03/12 12:05:12;;;;;;;20.10;11.07;;;5.10;1.00;;;;;;5021832;28;20469;-51
2023/03/12 12:08:08;;;;;;;8.13;4.80;;;5.20;1.00;;;;;;5011030;28;20463;-52
2023/03/12 12:10:55;;;;;;;9.73;4.30;;;5.40;1.00;;;;;;5022205;28;20642;-52
2023/03/12 12:13:49;;;;;;;16.60;4.13;;;5.40;1.00;;;;;;5025255;28;20516;-51
2023/03/12 12:16:32;;;;;;;7.53;4.73;;;5.50;1.00;;;;;;5021946;28;20460;-51
2023/03/12 12:19:14;;;;;;;8.60;4.60;;;5.50;1.00;;;;;;5020786;28;20467;-52
2023/03/12 12:22:03;;;;;;;12.03;4.30;;;5.60;1.00;;;;;;5019339;28;20983;-51
2023/03/12 12:24:29;;;;;;;10.17;4.63;;;5.50;1.00;;;;;;5020800;28;20460;-50
2023/03/12 12:27:12;;;;;;;6.10;4.03;;;5.40;1.00;;;;;;5018111;28;20957;-50
2023/03/12 12:30:09;;;;;;;6.63;3.87;;;5.40;1.00;;;;;;5018804;28;20201;-52
2023/03/12 12:32:53;;;;;;;8.90;4.17;;;5.40;1.00;;;;;;5023124;28;20444;-51
2023/03/12 12:35:35;;;;;;;7.23;4.30;;;5.40;1.00;;;;;;5023237;28;20850;-51
2023/03/12 12:38:08;;;;;;;9.87;4.63;;;5.40;1.00;;;;;;5021971;28;20451;-51
2023/03/12 12:40:43;;;;;;;6.03;4.03;;;5.40;1.00;;;;;;5026787;28;20464;-51
2023/03/12 12:43:18;;;;;;;7.83;4.03;;;5.20;1.00;;;;;;5024400;28;20820;-51
2023/03/12 12:45:46;;;;;;;5.03;3.20;;;5.20;1.00;;;;;;5025823;28;20522;-51
2023/03/12 12:48:22;;;;;;;4.50;3.27;;;5.00;1.00;;;;;;5023049;28;20791;-51
2023/03/12 12:50:50;;;;;;;7.13;4.00;;;4.80;1.00;;;;;;5023817;28;20464;-51
2023/03/12 12:53:28;;;;;;;4.57;3.27;;;4.80;1.00;;;;;;5024497;28;20457;-51
2023/03/12 12:55:54;;;;;;;5.63;3.37;;;4.80;1.00;;;;;;5020623;28;20537;-51
2023/03/12 12:58:35;;;;;;;9.13;3.80;;;4.90;1.00;;;;;;5019876;28;20583;-51